Terminal Aerodrome Forecast
Issued by NWS

Home | Current Version | Previous Version | Text Only | Print | Product List | Glossary On
Versions: 1 2 3 4 5 6 7 8 9 10 11 12 13 14 15 16
318
FTUS44 KLZK 220536
TAFLLQ
TAF
KLLQ 220536Z 2206/2306 14008KT P6SM VCSH BKN020 OVC060
      WS020/20040KT
     FM221100 21008KT 5SM TSRA BR BKN020 OVC040CB WS020/20040KT
      TEMPO 2211/2213 VRB15G35KT 1SM +TSRA BKN015CB OVC040
     FM221500 30008G15KT P6SM -SHRA OVC020
     FM222000 34007KT P6SM VCSH SCT030 BKN060=

USA.gov is the U.S. government's official web portal to all federal, state and local government web resources and services.